createdAt,value
2018-09-06T00:00:22.466Z,15.24
2018-09-06T00:02:51.838Z,15.18
2018-09-06T00:05:21.638Z,15.12
2018-09-06T00:07:51.630Z,15.13
2018-09-06T00:10:21.337Z,15.07
2018-09-06T00:12:51.284Z,15.15
2018-09-06T00:15:20.733Z,15.26
2018-09-06T00:17:50.806Z,15.21
2018-09-06T00:20:20.209Z,15.32
2018-09-06T00:22:49.667Z,15.49
2018-09-06T00:25:19.098Z,15.56
2018-09-06T00:27:48.890Z,15.44
2018-09-06T00:30:18.591Z,15.44
2018-09-06T00:32:48.403Z,15.44
2018-09-06T00:35:18.143Z,15.25
2018-09-06T00:37:47.607Z,15.05
2018-09-06T00:40:16.974Z,15.29
2018-09-06T00:42:46.781Z,15.14
2018-09-06T00:45:16.505Z,15.16
2018-09-06T00:47:45.934Z,15.01
2018-09-06T00:50:18.353Z,14.97
2018-09-06T00:52:49.137Z,15.02
2018-09-06T00:55:19.650Z,14.89
2018-09-06T00:57:49.305Z,14.83
2018-09-06T01:00:18.756Z,14.89
2018-09-06T01:02:48.454Z,14.86
2018-09-06T01:05:18.146Z,14.80
2018-09-06T01:07:47.986Z,14.81
2018-09-06T01:10:17.455Z,14.72
2018-09-06T01:12:46.899Z,14.63
2018-09-06T01:15:16.783Z,14.59
2018-09-06T01:17:46.193Z,14.69
2018-09-06T01:20:15.581Z,14.63
2018-09-06T01:22:44.939Z,14.59
2018-09-06T01:25:14.369Z,14.63
2018-09-06T01:27:43.789Z,14.69
2018-09-06T01:30:13.191Z,14.74
2018-09-06T01:32:42.593Z,14.78
2018-09-06T01:35:12.065Z,14.93
2018-09-06T01:37:41.805Z,15.03
2018-09-06T01:40:11.263Z,15.05
2018-09-06T01:42:40.662Z,15.08
2018-09-06T01:45:10.061Z,15.05
2018-09-06T01:47:39.494Z,14.97
2018-09-06T01:50:09.350Z,14.92
2018-09-06T01:52:39.110Z,14.85
2018-09-06T01:55:08.850Z,14.79
2018-09-06T01:57:38.226Z,14.76
2018-09-06T02:00:08.073Z,14.72
2018-09-06T02:02:37.784Z,14.68
2018-09-06T02:05:07.691Z,14.64
2018-09-06T02:07:37.097Z,14.59
2018-09-06T02:10:06.558Z,14.59
2018-09-06T02:12:35.917Z,14.55
2018-09-06T02:15:05.334Z,14.53
2018-09-06T02:17:35.134Z,14.50
2018-09-06T02:20:04.601Z,14.47
2018-09-06T02:22:34.026Z,14.43
2018-09-06T02:25:03.755Z,14.41
2018-09-06T02:27:33.449Z,14.37
2018-09-06T02:30:02.833Z,14.33
2018-09-06T02:32:32.662Z,14.24
2018-09-06T02:35:02.076Z,14.19
2018-09-06T02:37:31.909Z,14.19
2018-09-06T02:40:01.367Z,14.42
2018-09-06T02:42:31.138Z,14.49
2018-09-06T02:45:00.580Z,14.44
2018-09-06T02:47:30.044Z,14.35
2018-09-06T02:50:04.752Z,14.37
2018-09-06T02:52:34.540Z,14.43
2018-09-06T02:55:03.953Z,14.37
2018-09-06T02:57:33.431Z,14.34
2018-09-06T03:00:03.193Z,14.34
2018-09-06T03:02:32.612Z,14.35
2018-09-06T03:05:01.989Z,14.30
2018-09-06T03:07:31.439Z,14.26
2018-09-06T03:10:01.239Z,14.23
2018-09-06T03:12:31.028Z,14.27
2018-09-06T03:15:00.484Z,14.28
2018-09-06T03:17:30.172Z,14.21
2018-09-06T03:19:59.604Z,14.13
2018-09-06T03:22:28.996Z,14.04
2018-09-06T03:24:58.766Z,14.03
2018-09-06T03:27:28.208Z,13.87
2018-09-06T03:29:58.004Z,13.84
2018-09-06T03:32:27.455Z,13.72
2018-09-06T03:34:57.221Z,13.60
2018-09-06T03:37:26.748Z,13.58
2018-09-06T03:39:56.789Z,13.52
2018-09-06T03:42:26.261Z,13.49
2018-09-06T03:44:56.056Z,13.41
2018-09-06T03:47:25.798Z,13.37
2018-09-06T03:49:55.384Z,13.35
2018-09-06T03:52:25.301Z,13.38
2018-09-06T03:54:54.962Z,13.36
2018-09-06T03:57:24.873Z,13.27
2018-09-06T03:59:55.109Z,13.31
2018-09-06T04:02:24.566Z,13.25
2018-09-06T04:04:54.368Z,13.24
2018-09-06T04:07:24.438Z,13.21
2018-09-06T04:09:54.854Z,13.08
2018-09-06T04:12:24.262Z,13.07
2018-09-06T04:14:53.720Z,13.01
2018-09-06T04:17:26.245Z,12.99
2018-09-06T04:19:55.822Z,13.18
2018-09-06T04:22:25.764Z,13.17
2018-09-06T04:24:55.672Z,13.07
2018-09-06T04:27:25.120Z,13.03
2018-09-06T04:29:54.673Z,13.06
2018-09-06T04:32:24.128Z,13.01
2018-09-06T04:34:54.145Z,13.00
2018-09-06T04:37:23.921Z,13.10
2018-09-06T04:39:53.484Z,13.15
2018-09-06T04:42:22.885Z,13.20
2018-09-06T04:44:52.628Z,13.22
2018-09-06T04:47:21.983Z,13.39
2018-09-06T04:49:51.401Z,13.47
2018-09-06T04:52:21.191Z,13.54
2018-09-06T04:54:50.724Z,13.57
2018-09-06T04:57:20.619Z,13.62
2018-09-06T04:59:50.067Z,13.56
2018-09-06T05:02:19.516Z,13.62
2018-09-06T05:04:48.971Z,13.64
2018-09-06T05:07:18.580Z,13.67
2018-09-06T05:09:48.084Z,13.64
2018-09-06T05:12:17.632Z,13.64
2018-09-06T05:14:47.012Z,13.75
2018-09-06T05:17:16.378Z,13.80
2018-09-06T05:19:45.785Z,13.84
2018-09-06T05:22:15.552Z,13.88
2018-09-06T05:24:44.983Z,13.91
2018-09-06T05:27:14.373Z,13.94
2018-09-06T05:29:43.744Z,14.01
2018-09-06T05:32:13.153Z,13.95
2018-09-06T05:34:42.585Z,14.19
2018-09-06T05:37:11.988Z,14.29
2018-09-06T05:39:41.852Z,14.41
2018-09-06T05:42:11.244Z,14.60
2018-09-06T05:44:41.239Z,14.76
2018-09-06T05:47:10.976Z,14.86
2018-09-06T05:49:40.411Z,14.93
2018-09-06T05:52:09.872Z,14.96
2018-09-06T05:54:39.475Z,14.99
2018-09-06T05:57:09.271Z,15.04
2018-09-06T05:59:39.166Z,15.15
2018-09-06T06:02:08.675Z,15.26
2018-09-06T06:04:38.045Z,15.33
2018-09-06T06:07:07.760Z,15.37
2018-09-06T06:09:37.179Z,15.46
2018-09-06T06:12:06.558Z,15.53
2018-09-06T06:14:35.972Z,15.58
2018-09-06T06:17:05.340Z,15.66
2018-09-06T06:19:34.770Z,15.74
2018-09-06T06:22:04.177Z,15.87
2018-09-06T06:24:33.875Z,15.94
2018-09-06T06:27:03.688Z,15.98
2018-09-06T06:29:33.052Z,16.08
2018-09-06T06:32:02.590Z,16.17
2018-09-06T06:34:32.332Z,16.24
2018-09-06T06:37:01.844Z,16.31
2018-09-06T06:39:31.220Z,16.35
2018-09-06T06:42:00.624Z,16.42
2018-09-06T06:44:30.012Z,16.52
2018-09-06T06:46:59.423Z,16.59
2018-09-06T06:49:29.219Z,16.72
2018-09-06T06:51:58.685Z,16.80
2018-09-06T06:54:28.087Z,16.87
2018-09-06T06:56:57.799Z,16.98
2018-09-06T06:59:27.668Z,17.07
2018-09-06T07:01:57.387Z,17.15
2018-09-06T07:04:26.874Z,17.19
2018-09-06T07:06:56.353Z,17.28
2018-09-06T07:09:26.107Z,17.40
2018-09-06T07:11:55.553Z,17.48
2018-09-06T07:14:25.429Z,17.56
2018-09-06T07:16:54.883Z,17.65
2018-09-06T07:19:24.633Z,17.78
2018-09-06T07:21:54.038Z,17.89
2018-09-06T07:24:23.503Z,18.02
2018-09-06T07:26:53.289Z,18.14
2018-09-06T07:29:23.121Z,18.17
2018-09-06T07:31:52.574Z,18.28
2018-09-06T07:34:22.020Z,18.36
2018-09-06T07:36:51.476Z,18.43
2018-09-06T07:39:20.923Z,18.51
2018-09-06T07:41:50.321Z,18.62
2018-09-06T07:44:20.084Z,18.64
2018-09-06T07:46:49.468Z,18.73
2018-09-06T07:49:19.272Z,18.80
2018-09-06T07:51:48.677Z,18.94
2018-09-06T07:54:18.098Z,19.05
2018-09-06T07:56:47.541Z,19.09
2018-09-06T07:59:16.960Z,19.13
2018-09-06T08:01:46.378Z,19.23
2018-09-06T08:04:15.849Z,19.31
2018-09-06T08:06:45.795Z,19.41
2018-09-06T08:09:15.267Z,19.47
2018-09-06T08:11:44.673Z,19.60
2018-09-06T08:14:14.502Z,19.69
2018-09-06T08:16:43.931Z,19.83
2018-09-06T08:19:13.448Z,19.91
2018-09-06T08:21:42.855Z,20.07
2018-09-06T08:24:12.680Z,20.15
2018-09-06T08:26:42.163Z,20.20
2018-09-06T08:29:11.552Z,20.27
2018-09-06T08:31:41.382Z,20.31
2018-09-06T08:34:11.139Z,20.37
2018-09-06T08:36:40.868Z,20.49
2018-09-06T08:39:12.503Z,20.61
2018-09-06T08:41:42.254Z,20.74
2018-09-06T08:44:11.998Z,20.76
2018-09-06T08:46:41.367Z,20.83
2018-09-06T08:49:11.103Z,20.91
2018-09-06T08:51:40.475Z,21.03
2018-09-06T08:54:09.882Z,21.14
2018-09-06T08:56:39.634Z,21.23
2018-09-06T08:59:08.993Z,21.27
2018-09-06T09:01:38.547Z,21.24
2018-09-06T09:04:08.414Z,21.33
2018-09-06T09:06:38.690Z,21.37
2018-09-06T09:09:14.403Z,21.48
2018-09-06T09:11:44.186Z,21.48
2018-09-06T09:14:13.589Z,21.61
2018-09-06T09:16:43.403Z,21.77
2018-09-06T09:19:12.830Z,21.69
2018-09-06T09:21:42.306Z,21.73
2018-09-06T09:24:11.984Z,21.86
2018-09-06T09:26:41.709Z,21.99
2018-09-06T09:29:11.414Z,21.90
2018-09-06T09:31:41.271Z,21.95
2018-09-06T09:34:10.987Z,21.94
2018-09-06T09:36:40.810Z,21.99
2018-09-06T09:39:11.285Z,22.08
2018-09-06T09:41:41.174Z,22.16
2018-09-06T09:44:10.897Z,22.26
2018-09-06T09:49:09.210Z,22.41
2018-09-06T09:51:38.976Z,22.44
2018-09-06T09:54:08.897Z,22.39
2018-09-06T09:56:38.800Z,22.48
2018-09-06T09:59:08.678Z,22.61
2018-09-06T10:01:44.122Z,22.61
2018-09-06T10:04:18.812Z,22.55
2018-09-06T10:07:52.182Z,22.60
2018-09-06T10:10:21.642Z,22.71
2018-09-06T10:12:51.482Z,22.82
2018-09-06T10:15:20.926Z,22.86
2018-09-06T10:17:50.631Z,22.86
2018-09-06T10:20:20.513Z,22.95
2018-09-06T10:22:50.352Z,22.99
2018-09-06T10:25:19.813Z,22.93
2018-09-06T10:27:49.453Z,22.74
2018-09-06T10:30:18.974Z,22.77
2018-09-06T10:32:48.814Z,23.03
2018-09-06T10:35:18.313Z,23.19
2018-09-06T10:37:47.752Z,23.26
2018-09-06T10:40:17.099Z,23.38
2018-09-06T10:42:46.965Z,23.62
2018-09-06T10:45:16.806Z,23.57
2018-09-06T10:47:46.619Z,23.66
2018-09-06T10:50:16.057Z,23.73
2018-09-06T10:52:45.878Z,23.76
2018-09-06T10:55:15.640Z,23.77
2018-09-06T10:57:45.532Z,23.69
2018-09-06T11:00:14.945Z,23.69
2018-09-06T11:02:44.818Z,23.89
2018-09-06T11:05:14.533Z,24.19
2018-09-06T11:07:44.320Z,24.22
2018-09-06T11:10:14.102Z,24.13
2018-09-06T11:12:43.526Z,24.34
2018-09-06T11:15:12.912Z,24.41
2018-09-06T11:17:42.698Z,24.46
2018-09-06T11:20:12.400Z,24.49
2018-09-06T11:22:42.304Z,24.45
2018-09-06T11:25:11.905Z,24.56
2018-09-06T11:27:41.689Z,24.61
2018-09-06T11:30:11.075Z,24.64
2018-09-06T11:32:40.885Z,24.66
2018-09-06T11:35:10.331Z,24.59
2018-09-06T11:37:40.125Z,24.55
2018-09-06T11:40:10.037Z,24.38
2018-09-06T11:42:39.755Z,24.35
2018-09-06T11:45:09.335Z,24.24
2018-09-06T11:47:38.778Z,24.12
2018-09-06T11:50:08.521Z,24.23
2018-09-06T11:52:37.932Z,24.30
2018-09-06T11:55:07.886Z,24.23
2018-09-06T11:57:37.340Z,23.96
2018-09-06T12:00:07.297Z,24.05
2018-09-06T12:02:37.056Z,24.18
2018-09-06T12:05:06.901Z,24.06
2018-09-06T12:07:36.677Z,24.25
2018-09-06T12:10:06.253Z,24.30
2018-09-06T12:12:35.979Z,24.17
2018-09-06T12:15:06.089Z,24.32
2018-09-06T12:17:35.491Z,24.65
2018-09-06T12:20:05.362Z,24.91
2018-09-06T12:22:34.759Z,25.15
2018-09-06T12:25:04.738Z,25.31
2018-09-06T12:27:34.605Z,25.26
2018-09-06T12:30:04.501Z,25.40
2018-09-06T12:32:33.962Z,25.55
2018-09-06T12:35:03.469Z,25.64
2018-09-06T12:37:33.207Z,25.89
2018-09-06T12:40:02.997Z,26.02
2018-09-06T12:42:33.109Z,25.93
2018-09-06T12:45:03.001Z,25.73
2018-09-06T12:47:32.671Z,24.96
2018-09-06T12:50:02.151Z,25.15
2018-09-06T12:52:31.947Z,25.35
2018-09-06T12:55:01.777Z,24.99
2018-09-06T12:57:31.164Z,25.00
2018-09-06T13:00:00.595Z,24.85
2018-09-06T13:02:30.101Z,24.90
2018-09-06T13:04:59.512Z,24.84
2018-09-06T13:07:29.293Z,24.80
2018-09-06T13:09:59.020Z,25.01
2018-09-06T13:12:28.760Z,24.99
2018-09-06T13:14:58.496Z,24.99
2018-09-06T13:17:27.908Z,24.85
2018-09-06T13:19:57.801Z,24.91
2018-09-06T13:22:27.685Z,24.82
2018-09-06T13:24:57.038Z,24.77
2018-09-06T13:27:26.814Z,24.82
2018-09-06T13:29:56.521Z,24.84
2018-09-06T13:32:26.285Z,24.74
2018-09-06T13:34:55.945Z,24.89
2018-09-06T13:37:25.361Z,25.12
2018-09-06T13:39:55.089Z,25.33
2018-09-06T13:42:24.848Z,25.41
2018-09-06T13:44:55.105Z,25.76
2018-09-06T13:47:24.905Z,26.00
2018-09-06T13:49:54.668Z,25.85
2018-09-06T13:52:24.484Z,25.54
2018-09-06T13:54:54.254Z,25.86
2018-09-06T13:57:23.660Z,25.95
2018-09-06T13:59:53.436Z,26.05
2018-09-06T14:02:22.877Z,25.87
2018-09-06T14:04:52.632Z,25.68
2018-09-06T14:07:22.444Z,25.80
2018-09-06T14:09:52.390Z,25.65
2018-09-06T14:12:22.161Z,25.54
2018-09-06T14:14:51.984Z,25.72
2018-09-06T14:17:21.439Z,25.53
2018-09-06T14:19:51.337Z,25.62
2018-09-06T14:22:21.077Z,25.63
2018-09-06T14:24:50.855Z,25.57
2018-09-06T14:27:20.680Z,25.68
2018-09-06T14:29:50.988Z,25.66
2018-09-06T14:32:20.773Z,25.34
2018-09-06T14:34:50.491Z,25.28
2018-09-06T14:37:20.249Z,25.22
2018-09-06T14:39:50.018Z,25.25
2018-09-06T14:42:19.715Z,25.21
2018-09-06T14:44:49.514Z,25.22
2018-09-06T14:47:19.212Z,25.08
2018-09-06T14:49:48.996Z,25.07
2018-09-06T14:52:18.763Z,25.13
2018-09-06T14:54:48.443Z,25.14
2018-09-06T14:57:18.381Z,25.14
2018-09-06T14:59:47.795Z,25.25
2018-09-06T15:02:17.229Z,25.46
2018-09-06T15:04:47.022Z,25.42
2018-09-06T15:07:16.716Z,25.33
2018-09-06T15:09:46.486Z,25.31
2018-09-06T15:12:16.455Z,25.23
2018-09-06T15:14:46.204Z,25.14
2018-09-06T15:17:15.953Z,25.13
2018-09-06T15:19:45.742Z,25.15
2018-09-06T15:22:15.515Z,25.02
2018-09-06T15:24:45.279Z,25.02
2018-09-06T15:27:15.220Z,24.93
2018-09-06T15:29:44.613Z,24.58
2018-09-06T15:32:14.371Z,24.63
2018-09-06T15:34:44.325Z,24.75
2018-09-06T15:37:13.785Z,24.78
2018-09-06T15:39:44.683Z,24.78
2018-09-06T15:42:17.641Z,24.86
2018-09-06T15:44:47.824Z,24.92
2018-09-06T15:47:17.975Z,24.88
2018-09-06T15:49:48.086Z,24.73
2018-09-06T15:52:18.207Z,24.56
2018-09-06T15:54:47.639Z,24.56
2018-09-06T15:57:17.319Z,24.39
2018-09-06T15:59:47.175Z,24.33
2018-09-06T16:02:16.966Z,24.31
2018-09-06T16:04:46.487Z,24.33
2018-09-06T16:07:15.971Z,24.30
2018-09-06T16:09:45.495Z,24.29
2018-09-06T16:12:15.357Z,24.27
2018-09-06T16:14:45.375Z,24.44
2018-09-06T16:17:15.101Z,24.33
2018-09-06T16:19:44.639Z,24.34
2018-09-06T16:22:14.075Z,24.20
2018-09-06T16:24:43.812Z,24.02
2018-09-06T16:27:14.452Z,24.03
2018-09-06T16:29:44.095Z,24.01
2018-09-06T16:32:13.673Z,23.94
2018-09-06T16:34:43.375Z,23.91
2018-09-06T16:37:13.075Z,23.86
2018-09-06T16:39:42.743Z,23.98
2018-09-06T16:42:12.350Z,23.88
2018-09-06T16:44:42.476Z,23.71
2018-09-06T16:47:12.099Z,23.40
2018-09-06T16:49:41.668Z,23.22
2018-09-06T16:52:11.243Z,23.36
2018-09-06T16:54:40.929Z,23.31
2018-09-06T16:57:10.853Z,23.09
2018-09-06T16:59:41.221Z,23.15
2018-09-06T17:02:11.291Z,23.29
2018-09-06T17:04:41.107Z,23.10
2018-09-06T17:07:11.177Z,23.10
2018-09-06T17:09:41.323Z,22.87
2018-09-06T17:12:11.656Z,22.61
2018-09-06T17:14:41.482Z,22.75
2018-09-06T17:17:11.288Z,22.69
2018-09-06T17:19:40.978Z,22.56
2018-09-06T17:22:11.114Z,22.67
2018-09-06T17:24:40.650Z,22.53
2018-09-06T17:27:10.309Z,22.36
2018-09-06T17:29:40.044Z,22.57
2018-09-06T17:32:09.713Z,22.44
2018-09-06T17:34:40.131Z,22.26
2018-09-06T17:37:09.815Z,22.24
2018-09-06T17:39:39.534Z,22.18
2018-09-06T17:42:09.180Z,22.06
2018-09-06T17:44:38.961Z,21.90
2018-09-06T17:47:08.518Z,21.79
2018-09-06T17:49:38.092Z,21.65
2018-09-06T17:52:08.130Z,21.56
2018-09-06T17:54:37.662Z,21.40
2018-09-06T17:57:07.355Z,21.49
2018-09-06T17:59:37.180Z,21.55
2018-09-06T18:02:06.790Z,21.36
2018-09-06T18:04:36.282Z,21.23
2018-09-06T18:07:06.101Z,21.23
2018-09-06T18:09:35.491Z,21.29
2018-09-06T18:12:05.277Z,20.97
2018-09-06T18:14:34.953Z,20.90
2018-09-06T18:17:07.515Z,20.79
2018-09-06T18:19:41.031Z,21.03
2018-09-06T18:22:10.854Z,20.80
2018-09-06T18:24:41.427Z,20.77
2018-09-06T18:27:11.077Z,20.63
2018-09-06T18:29:41.482Z,20.64
2018-09-06T18:32:11.022Z,20.50
2018-09-06T18:34:40.867Z,20.28
2018-09-06T18:37:10.641Z,20.45
2018-09-06T18:39:40.464Z,20.46
2018-09-06T18:42:10.425Z,20.45
2018-09-06T18:44:40.581Z,20.34
2018-09-06T18:47:13.534Z,20.36
2018-09-06T18:49:43.803Z,20.30
2018-09-06T18:52:13.649Z,20.08
2018-09-06T18:54:43.658Z,20.20
2018-09-06T18:57:16.061Z,20.21
2018-09-06T18:59:52.809Z,20.14
2018-09-06T19:02:22.333Z,20.21
2018-09-06T19:04:51.849Z,20.04
2018-09-06T19:07:21.634Z,19.86
2018-09-06T19:09:51.304Z,19.98
2018-09-06T19:12:21.185Z,19.90
2018-09-06T19:14:51.151Z,19.92
2018-09-06T19:17:25.291Z,19.83
2018-09-06T19:19:55.109Z,19.93
2018-09-06T19:22:25.018Z,19.81
2018-09-06T19:24:55.573Z,19.73
2018-09-06T19:27:26.981Z,19.91
2018-09-06T19:29:57.352Z,19.96
2018-09-06T19:32:28.497Z,19.71
2018-09-06T19:34:58.001Z,19.71
2018-09-06T19:37:27.929Z,19.51
2018-09-06T19:39:57.707Z,19.64
2018-09-06T19:42:27.745Z,19.57
2018-09-06T19:44:57.243Z,19.62
2018-09-06T19:47:26.687Z,19.55
2018-09-06T19:49:56.101Z,19.47
2018-09-06T19:52:25.998Z,19.32
2018-09-06T19:54:55.577Z,19.22
2018-09-06T19:57:25.069Z,19.16
2018-09-06T19:59:54.555Z,19.33
2018-09-06T20:02:23.937Z,19.44
2018-09-06T20:04:54.478Z,19.37
2018-09-06T20:07:24.156Z,19.29
2018-09-06T20:09:53.664Z,19.30
2018-09-06T20:12:23.451Z,19.29
2018-09-06T20:14:52.947Z,19.33
2018-09-06T20:17:22.753Z,19.29
2018-09-06T20:19:52.547Z,19.20
2018-09-06T20:22:22.149Z,19.24
2018-09-06T20:24:51.617Z,19.28
2018-09-06T20:27:21.316Z,19.35
2018-09-06T20:29:50.785Z,19.32
2018-09-06T20:32:20.653Z,19.34
2018-09-06T20:34:50.096Z,19.32
2018-09-06T20:37:19.889Z,19.30
2018-09-06T20:39:49.613Z,19.23
2018-09-06T20:42:18.988Z,19.21
2018-09-06T20:44:48.428Z,19.22
2018-09-06T20:47:17.854Z,19.27
2018-09-06T20:49:47.618Z,19.33
2018-09-06T20:52:17.409Z,19.29
2018-09-06T20:54:46.808Z,19.23
2018-09-06T20:57:16.498Z,19.17
2018-09-06T20:59:45.908Z,19.25
2018-09-06T21:02:20.539Z,19.31
2018-09-06T21:04:50.089Z,19.35
2018-09-06T21:07:19.535Z,19.34
2018-09-06T21:09:49.475Z,19.26
2018-09-06T21:12:19.296Z,19.19
2018-09-06T21:14:49.051Z,19.09
2018-09-06T21:17:18.496Z,18.93
2018-09-06T21:19:48.252Z,18.76
2018-09-06T21:22:17.695Z,18.68
2018-09-06T21:24:47.073Z,18.72
2018-09-06T21:27:16.956Z,18.63
2018-09-06T21:29:46.367Z,18.51
2018-09-06T21:32:16.185Z,18.36
2018-09-06T21:34:46.080Z,18.22
2018-09-06T21:37:15.597Z,18.21
2018-09-06T21:39:45.077Z,18.19
2018-09-06T21:42:14.651Z,18.17
2018-09-06T21:44:43.994Z,18.15
2018-09-06T21:47:13.688Z,18.06
2018-09-06T21:49:43.192Z,18.00
2018-09-06T21:52:12.932Z,18.03
2018-09-06T21:54:42.666Z,18.04
2018-09-06T21:57:12.069Z,17.99
2018-09-06T21:59:41.828Z,18.07
2018-09-06T22:02:16.731Z,18.08
2018-09-06T22:04:46.436Z,18.04
2018-09-06T22:07:16.201Z,17.92
2018-09-06T22:09:45.600Z,17.84
2018-09-06T22:12:16.960Z,17.83
2018-09-06T22:14:49.070Z,17.90
2018-09-06T22:17:18.877Z,17.84
2018-09-06T22:19:48.831Z,17.69
2018-09-06T22:22:18.288Z,17.62
2018-09-06T22:24:48.070Z,17.60
2018-09-06T22:27:17.487Z,17.70
2018-09-06T22:29:47.281Z,17.81
2018-09-06T22:32:16.695Z,17.86
2018-09-06T22:34:46.146Z,17.91
2018-09-06T22:37:15.911Z,17.89
2018-09-06T22:39:45.695Z,17.94
2018-09-06T22:42:15.741Z,17.92
2018-09-06T22:44:45.503Z,17.89
2018-09-06T22:47:15.272Z,17.92
2018-09-06T22:49:45.088Z,17.93
2018-09-06T22:52:14.553Z,17.99
2018-09-06T22:54:44.151Z,17.97
2018-09-06T22:57:14.099Z,17.99
2018-09-06T22:59:43.932Z,17.99
2018-09-06T23:02:13.784Z,18.03
2018-09-06T23:04:43.483Z,18.18
2018-09-06T23:07:13.313Z,18.21
2018-09-06T23:09:42.691Z,18.21
2018-09-06T23:12:12.497Z,18.22
2018-09-06T23:14:41.931Z,18.32
2018-09-06T23:17:11.313Z,18.52
2018-09-06T23:19:41.168Z,18.61
2018-09-06T23:22:10.936Z,18.58
2018-09-06T23:24:40.773Z,18.52
2018-09-06T23:27:10.567Z,18.42
2018-09-06T23:29:40.375Z,18.30
2018-09-06T23:32:10.219Z,18.25
2018-09-06T23:34:39.958Z,18.17
2018-09-06T23:37:09.700Z,18.08
2018-09-06T23:39:39.489Z,17.95
2018-09-06T23:42:09.282Z,17.81
2018-09-06T23:44:39.090Z,17.79
2018-09-06T23:47:09.457Z,17.71
2018-09-06T23:49:39.225Z,17.76
2018-09-06T23:52:09.017Z,17.71
2018-09-06T23:54:38.784Z,17.67
2018-09-06T23:57:08.670Z,17.73
2018-09-06T23:59:38.620Z,17.60
